createdAt,value
2018-09-11T00:04:49.586Z,7.50
2018-09-11T00:09:53.083Z,7.00
2018-09-11T00:14:56.524Z,5.00
2018-09-11T00:20:00.056Z,7.40
2018-09-11T00:25:03.900Z,6.75
2018-09-11T00:30:07.397Z,7.00
2018-09-11T00:35:10.839Z,8.40
2018-09-11T00:40:14.323Z,8.80
2018-09-11T00:45:17.886Z,7.00
2018-09-11T00:50:21.356Z,6.00
2018-09-11T00:55:24.792Z,5.80
2018-09-11T01:00:28.250Z,6.00
2018-09-11T01:05:31.679Z,9.75
2018-09-11T01:10:35.154Z,5.40
2018-09-11T01:15:38.616Z,6.00
2018-09-11T01:20:42.071Z,6.80
2018-09-11T01:25:45.527Z,4.40
2018-09-11T01:30:48.968Z,6.75
2018-09-11T01:35:52.428Z,8.00
2018-09-11T01:40:55.875Z,6.00
2018-09-11T01:45:59.328Z,6.20
2018-09-11T01:51:02.995Z,8.00
2018-09-11T01:56:06.435Z,6.80
2018-09-11T02:01:09.883Z,6.25
2018-09-11T02:06:13.313Z,8.60
2018-09-11T02:11:16.786Z,7.00
2018-09-11T02:16:20.268Z,7.20
2018-09-11T02:21:23.720Z,7.00
2018-09-11T02:26:27.202Z,7.60
2018-09-11T02:31:30.659Z,7.40
2018-09-11T02:36:34.123Z,8.80
2018-09-11T02:41:37.684Z,8.25
2018-09-11T02:46:41.239Z,8.00
2018-09-11T02:51:44.704Z,7.80
2018-09-11T02:56:48.168Z,7.20
2018-09-11T03:01:51.606Z,5.75
2018-09-11T03:06:55.040Z,7.75
2018-09-11T03:11:58.479Z,7.00
2018-09-11T03:17:01.914Z,5.75
2018-09-11T03:22:05.367Z,6.60
2018-09-11T03:27:08.789Z,7.50
2018-09-11T03:32:12.232Z,6.40
2018-09-11T03:37:15.713Z,7.50
2018-09-11T03:42:19.155Z,7.25
2018-09-11T03:47:22.608Z,6.00
2018-09-11T03:52:26.080Z,7.00
2018-09-11T03:57:29.527Z,8.40
2018-09-11T04:02:32.967Z,6.75
2018-09-11T04:07:36.415Z,9.60
2018-09-11T04:12:39.870Z,11.60
2018-09-11T04:17:43.335Z,6.80
2018-09-11T04:22:46.807Z,7.50
2018-09-11T04:27:50.246Z,9.20
2018-09-11T04:32:53.741Z,7.40
2018-09-11T04:37:57.183Z,8.25
2018-09-11T04:43:00.763Z,7.50
2018-09-11T04:48:04.252Z,9.00
2018-09-11T04:53:07.737Z,7.40
2018-09-11T04:58:11.210Z,7.20
2018-09-11T05:03:14.674Z,9.25
2018-09-11T05:08:18.139Z,9.60
2018-09-11T05:13:21.642Z,8.80
2018-09-11T05:18:25.088Z,10.00
2018-09-11T05:23:28.530Z,8.00
2018-09-11T05:28:31.965Z,8.75
2018-09-11T05:33:35.401Z,8.00
2018-09-11T05:38:38.838Z,10.50
2018-09-11T05:43:42.288Z,8.40
2018-09-11T05:48:45.774Z,7.50
2018-09-11T05:53:49.222Z,12.25
2018-09-11T05:58:52.723Z,11.50
2018-09-11T06:03:56.183Z,10.75
2018-09-11T06:08:59.702Z,11.50
2018-09-11T06:14:03.172Z,9.40
2018-09-11T06:19:06.983Z,9.00
2018-09-11T06:24:10.444Z,8.60
2018-09-11T06:29:14.008Z,11.50
2018-09-11T06:34:17.419Z,11.75
2018-09-11T06:39:20.876Z,13.50
2018-09-11T06:44:24.335Z,12.50
2018-09-11T06:49:27.804Z,13.75
2018-09-11T06:54:31.265Z,12.25
2018-09-11T06:59:34.734Z,14.00
2018-09-11T07:04:38.196Z,12.00
2018-09-11T07:09:41.695Z,12.80
2018-09-11T07:14:45.188Z,9.50
2018-09-11T07:19:48.887Z,11.50
2018-09-11T07:24:52.264Z,11.40
2018-09-11T07:29:55.769Z,8.75
2018-09-11T07:34:59.248Z,13.00
2018-09-11T07:40:02.989Z,9.80
2018-09-11T07:45:06.670Z,12.40
2018-09-11T07:50:10.215Z,10.80
2018-09-11T07:55:13.764Z,7.80
2018-09-11T08:00:17.269Z,9.20
2018-09-11T08:05:20.829Z,10.50
2018-09-11T08:10:24.380Z,9.80
2018-09-11T08:15:27.882Z,9.75
2018-09-11T08:20:31.447Z,8.40
2018-09-11T08:25:34.929Z,7.00
2018-09-11T08:30:38.416Z,7.50
2018-09-11T08:35:41.903Z,9.50
2018-09-11T08:40:45.384Z,8.40
2018-09-11T08:45:48.855Z,8.75
2018-09-11T08:50:52.418Z,5.20
2018-09-11T08:55:55.937Z,7.80
2018-09-11T09:00:59.397Z,7.00
2018-09-11T09:06:02.875Z,6.25
2018-09-11T09:11:06.429Z,6.00
2018-09-11T09:16:09.912Z,8.00
2018-09-11T09:21:13.421Z,6.00
2018-09-11T09:26:16.922Z,7.00
2018-09-11T09:31:20.562Z,7.40
2018-09-11T09:36:24.192Z,6.00
2018-09-11T09:41:27.651Z,5.80
2018-09-11T09:46:31.133Z,6.20
2018-09-11T09:51:34.620Z,7.20
2018-09-11T09:56:38.068Z,5.75
2018-09-11T10:01:46.754Z,7.25
2018-09-11T10:06:50.243Z,6.50
2018-09-11T10:11:53.757Z,8.25
2018-09-11T10:16:57.207Z,6.25
2018-09-11T10:22:00.707Z,7.20
2018-09-11T10:27:04.307Z,5.25
2018-09-11T10:32:07.792Z,6.25
2018-09-11T10:37:11.243Z,7.80
2018-09-11T10:42:14.775Z,6.00
2018-09-11T10:47:18.243Z,5.80
2018-09-11T10:52:21.716Z,6.00
2018-09-11T10:57:25.189Z,5.60
2018-09-11T11:02:33.739Z,7.00
2018-09-11T11:07:37.190Z,5.75
2018-09-11T11:12:40.654Z,7.50
2018-09-11T11:17:44.135Z,6.00
2018-09-11T11:22:47.650Z,6.40
2018-09-11T11:33:00.680Z,6.00
2018-09-11T11:38:10.848Z,5.75
2018-09-11T11:43:14.320Z,7.00
2018-09-11T11:48:17.834Z,5.80
2018-09-11T11:53:21.239Z,6.00
2018-09-11T11:58:24.720Z,4.80
2018-09-11T12:03:28.160Z,3.50
2018-09-11T12:08:32.371Z,5.40
2018-09-11T12:13:35.820Z,6.75
2018-09-11T12:18:39.287Z,5.00
2018-09-11T12:23:42.763Z,4.75
2018-09-11T12:28:46.213Z,5.00
2018-09-11T12:33:49.730Z,5.80
2018-09-11T12:38:53.205Z,5.50
2018-09-11T12:43:56.668Z,4.00
2018-09-11T12:49:00.237Z,3.25
2018-09-11T12:54:03.720Z,5.00
2018-09-11T12:59:07.212Z,5.20
2018-09-11T13:04:10.712Z,4.00
2018-09-11T13:09:14.261Z,4.00
2018-09-11T13:14:17.714Z,2.60
2018-09-11T13:19:21.263Z,3.75
2018-09-11T13:24:24.774Z,4.00
2018-09-11T13:29:28.221Z,3.25
2018-09-11T13:34:31.834Z,4.40
2018-09-11T13:39:35.355Z,4.00
2018-09-11T13:44:38.839Z,5.00
2018-09-11T13:49:42.299Z,3.50
2018-09-11T13:54:45.800Z,4.00
2018-09-11T13:59:49.663Z,3.00
2018-09-11T14:04:53.099Z,3.00
2018-09-11T14:09:56.643Z,4.50
2018-09-11T14:15:00.162Z,3.00
2018-09-11T14:20:04.469Z,4.00
2018-09-11T14:25:07.988Z,3.00
2018-09-11T14:30:11.698Z,3.33
2018-09-11T14:35:15.413Z,2.40
2018-09-11T14:40:18.965Z,2.00
2018-09-11T14:45:22.458Z,3.00
2018-09-11T14:50:25.903Z,2.80
2018-09-11T14:55:29.461Z,2.00
2018-09-11T15:00:33.092Z,2.40
2018-09-11T15:05:36.671Z,4.00
2018-09-11T15:10:40.462Z,4.40
2018-09-11T15:15:43.903Z,3.00
2018-09-11T15:20:47.343Z,2.00
2018-09-11T15:25:50.847Z,2.60
2018-09-11T15:30:54.284Z,4.20
2018-09-11T15:35:57.766Z,2.25
2018-09-11T15:41:01.201Z,3.40
2018-09-11T15:46:04.630Z,3.60
2018-09-11T15:51:08.096Z,1.60
2018-09-11T15:56:11.563Z,4.25
2018-09-11T16:01:15.057Z,5.00
2018-09-11T16:06:18.581Z,2.60
2018-09-11T16:11:22.136Z,4.00
2018-09-11T16:16:25.780Z,2.60
2018-09-11T16:21:29.311Z,4.50
2018-09-11T16:26:33.558Z,2.60
2018-09-11T16:31:37.121Z,1.00
2018-09-11T16:36:40.674Z,2.40
2018-09-11T16:41:44.143Z,3.00
2018-09-11T16:46:47.760Z,1.40
2018-09-11T16:51:51.266Z,3.00
2018-09-11T16:56:54.965Z,2.00
2018-09-11T17:01:58.749Z,2.00
2018-09-11T17:07:02.318Z,2.25
2018-09-11T17:12:05.967Z,2.00
2018-09-11T17:17:09.463Z,2.20
2018-09-11T17:22:12.959Z,1.75
2018-09-11T17:27:16.618Z,2.00
2018-09-11T17:32:20.032Z,3.00
2018-09-11T17:37:23.489Z,2.80
2018-09-11T17:42:27.047Z,2.25
2018-09-11T17:47:30.660Z,2.00
2018-09-11T17:52:34.404Z,2.20
2018-09-11T17:57:38.023Z,2.25
2018-09-11T18:02:41.665Z,2.80
2018-09-11T18:07:45.499Z,2.25
2018-09-11T18:12:49.070Z,1.20
2018-09-11T18:17:52.685Z,3.60
2018-09-11T18:22:56.344Z,2.25
2018-09-11T18:27:59.900Z,1.00
2018-09-11T18:33:03.508Z,3.60
2018-09-11T18:38:07.225Z,1.00
2018-09-11T18:43:10.763Z,1.20
2018-09-11T18:48:14.282Z,2.00
2018-09-11T18:53:19.186Z,2.50
2018-09-11T18:58:22.769Z,1.00
2018-09-11T19:03:26.260Z,3.00
2018-09-11T19:08:29.800Z,2.00
2018-09-11T19:13:33.345Z,2.60
2018-09-11T19:18:37.054Z,2.60
2018-09-11T19:23:40.703Z,3.20
2018-09-11T19:28:44.308Z,2.00
2018-09-11T19:33:47.920Z,2.20
2018-09-11T19:38:51.441Z,3.00
2018-09-11T19:43:54.926Z,2.00
2018-09-11T19:48:58.386Z,3.80
2018-09-11T19:54:01.968Z,3.25
2018-09-11T19:59:05.411Z,3.50
2018-09-11T20:04:08.974Z,4.60
2018-09-11T20:09:12.518Z,3.00
2018-09-11T20:14:15.959Z,3.80
2018-09-11T20:19:19.508Z,5.80
2018-09-11T20:24:23.083Z,5.00
2018-09-11T20:29:26.544Z,2.80
2018-09-11T20:34:30.132Z,6.00
2018-09-11T20:39:33.616Z,6.20
2018-09-11T20:44:37.164Z,4.50
2018-09-11T20:49:40.676Z,4.00
2018-09-11T20:54:44.193Z,4.75
2018-09-11T20:59:47.644Z,3.20
2018-09-11T21:04:51.088Z,3.00
2018-09-11T21:09:54.612Z,4.00
2018-09-11T21:14:58.079Z,3.00
2018-09-11T21:20:01.566Z,3.25
2018-09-11T21:25:06.323Z,2.60
2018-09-11T21:30:09.800Z,4.20
2018-09-11T21:35:13.361Z,2.20
2018-09-11T21:40:16.838Z,2.80
2018-09-11T21:45:20.353Z,3.00
2018-09-11T21:50:23.830Z,3.80
2018-09-11T21:55:27.287Z,5.50
2018-09-11T22:00:30.783Z,1.25
2018-09-11T22:05:34.282Z,4.60
2018-09-11T22:10:38.824Z,2.00
2018-09-11T22:15:42.245Z,3.00
2018-09-11T22:20:46.652Z,3.40
2018-09-11T22:25:50.140Z,3.20
2018-09-11T22:30:53.604Z,3.80
2018-09-11T22:35:57.278Z,2.25
2018-09-11T22:41:01.188Z,2.60
2018-09-11T22:46:05.270Z,2.40
2018-09-11T22:51:09.098Z,3.50
2018-09-11T22:56:12.576Z,3.80
2018-09-11T23:01:16.016Z,3.00
2018-09-11T23:06:19.442Z,3.80
2018-09-11T23:11:22.892Z,2.50
2018-09-11T23:16:26.347Z,3.00
2018-09-11T23:21:29.790Z,4.00
2018-09-11T23:26:33.251Z,2.20
2018-09-11T23:31:36.717Z,3.00
2018-09-11T23:36:40.158Z,2.20
2018-09-11T23:41:43.614Z,4.75
2018-09-11T23:46:47.126Z,3.75
2018-09-11T23:51:50.563Z,1.00
2018-09-11T23:56:54.163Z,3.00
